sensor_id;sensor_type;location;lat;lon;timestamp;pressure;altitude;pressure_sealevel;temperature;humidity
17254;BME280;32542;52.832;13.816;2023-05-13T00:00:07;102042.41;;;22.04;39.88
17254;BME280;32542;52.832;13.816;2023-05-13T00:03:10;102040.66;;;22.03;39.92
17254;BME280;32542;52.832;13.816;2023-05-13T00:06:13;102045.06;;;22.04;39.99
17254;BME280;32542;52.832;13.816;2023-05-13T00:09:16;102037.06;;;22.04;39.85
17254;BME280;32542;52.832;13.816;2023-05-13T00:12:20;102040.66;;;22.03;39.95
17254;BME280;32542;52.832;13.816;2023-05-13T00:15:23;102038.91;;;22.02;39.98
17254;BME280;32542;52.832;13.816;2023-05-13T00:18:25;102044.25;;;22.02;39.90
17254;BME280;32542;52.832;13.816;2023-05-13T00:21:28;102046.91;;;22.02;39.90
17254;BME280;32542;52.832;13.816;2023-05-13T00:24:32;102049.59;;;22.02;39.91
17254;BME280;32542;52.832;13.816;2023-05-13T00:27:36;102046.91;;;22.02;39.97
17254;BME280;32542;52.832;13.816;2023-05-13T00:30:39;102049.59;;;22.02;39.97
17254;BME280;32542;52.832;13.816;2023-05-13T00:33:44;102055.78;;;22.03;40.01
17254;BME280;32542;52.832;13.816;2023-05-13T00:36:47;102052.25;;;22.02;40.08
17254;BME280;32542;52.832;13.816;2023-05-13T00:39:50;102038.03;;;22.02;40.07
17254;BME280;32542;52.832;13.816;2023-05-13T00:42:54;102060.31;;;22.01;40.09
17254;BME280;32542;52.832;13.816;2023-05-13T00:45:57;102058.53;;;22.01;40.11
17254;BME280;32542;52.832;13.816;2023-05-13T00:49:01;102055.00;;;21.99;40.01
17254;BME280;32542;52.832;13.816;2023-05-13T00:52:06;102067.44;;;22.00;40.13
17254;BME280;32542;52.832;13.816;2023-05-13T00:55:09;102060.34;;;21.99;40.09
17254;BME280;32542;52.832;13.816;2023-05-13T00:58:13;102063.94;;;21.98;40.12
17254;BME280;32542;52.832;13.816;2023-05-13T01:01:24;102068.34;;;21.99;40.11
17254;BME280;32542;52.832;13.816;2023-05-13T01:04:35;102071.00;;;21.99;40.14
17254;BME280;32542;52.832;13.816;2023-05-13T01:07:43;102073.66;;;21.99;40.04
17254;BME280;32542;52.832;13.816;2023-05-13T01:10:50;102076.34;;;21.99;40.14
17254;BME280;32542;52.832;13.816;2023-05-13T01:14:02;102073.66;;;21.99;40.09
17254;BME280;32542;52.832;13.816;2023-05-13T01:17:10;102069.28;;;21.98;40.15
17254;BME280;32542;52.832;13.816;2023-05-13T01:20:17;102077.28;;;21.98;40.16
17254;BME280;32542;52.832;13.816;2023-05-13T01:23:24;102079.94;;;21.98;40.24
17254;BME280;32542;52.832;13.816;2023-05-13T01:26:27;102087.00;;;21.99;40.15
17254;BME280;32542;52.832;13.816;2023-05-13T01:29:31;102087.00;;;21.99;40.25
17254;BME280;32542;52.832;13.816;2023-05-13T01:32:37;102093.28;;;21.98;40.15
17254;BME280;32542;52.832;13.816;2023-05-13T01:35:40;102091.53;;;21.97;40.24
17254;BME280;32542;52.832;13.816;2023-05-13T01:38:46;102092.47;;;21.96;40.29
17254;BME280;32542;52.832;13.816;2023-05-13T01:41:52;102089.78;;;21.96;40.19
17254;BME280;32542;52.832;13.816;2023-05-13T01:44:55;102101.38;;;21.95;40.37
17254;BME280;32542;52.832;13.816;2023-05-13T01:47:58;102102.25;;;21.96;40.33
17254;BME280;32542;52.832;13.816;2023-05-13T01:51:10;102096.03;;;21.95;40.38
17254;BME280;32542;52.832;13.816;2023-05-13T01:54:14;102107.59;;;21.96;40.38
17254;BME280;32542;52.832;13.816;2023-05-13T01:57:22;102108.47;;;21.96;40.35
17254;BME280;32542;52.832;13.816;2023-05-13T02:00:25;102101.38;;;21.95;40.33
17254;BME280;32542;52.832;13.816;2023-05-13T02:03:27;102106.72;;;21.95;40.33
17254;BME280;32542;52.832;13.816;2023-05-13T02:06:30;102112.03;;;21.95;40.39
17254;BME280;32542;52.832;13.816;2023-05-13T02:09:35;102107.59;;;21.96;40.47
17254;BME280;32542;52.832;13.816;2023-05-13T02:12:39;102112.03;;;21.95;40.49
17254;BME280;32542;52.832;13.816;2023-05-13T02:15:42;102105.84;;;21.95;40.37
17254;BME280;32542;52.832;13.816;2023-05-13T02:18:45;102109.38;;;21.95;40.49
17254;BME280;32542;52.832;13.816;2023-05-13T02:21:48;102097.84;;;21.95;40.38
17254;BME280;32542;52.832;13.816;2023-05-13T02:24:52;102104.91;;;21.96;40.38
17254;BME280;32542;52.832;13.816;2023-05-13T02:27:55;102104.97;;;21.94;40.43
17254;BME280;32542;52.832;13.816;2023-05-13T02:30:57;102102.38;;;21.93;40.42
17254;BME280;32542;52.832;13.816;2023-05-13T02:34:01;102105.03;;;21.93;40.39
17254;BME280;32542;52.832;13.816;2023-05-13T02:37:04;102106.81;;;21.92;40.28
17254;BME280;32542;52.832;13.816;2023-05-13T02:40:15;102106.81;;;21.92;40.46
17254;BME280;32542;52.832;13.816;2023-05-13T02:43:20;102111.28;;;21.92;40.51
17254;BME280;32542;52.832;13.816;2023-05-13T02:46:30;102108.59;;;21.92;40.49
17254;BME280;32542;52.832;13.816;2023-05-13T02:49:33;102110.38;;;21.91;40.46
17254;BME280;32542;52.832;13.816;2023-05-13T02:52:36;102115.72;;;21.91;40.58
17254;BME280;32542;52.832;13.816;2023-05-13T02:55:42;102114.81;;;21.92;40.64
17254;BME280;32542;52.832;13.816;2023-05-13T02:58:45;102114.88;;;21.91;40.50
17254;BME280;32542;52.832;13.816;2023-05-13T03:01:48;102114.88;;;21.91;40.48
17254;BME280;32542;52.832;13.816;2023-05-13T03:04:51;102122.00;;;21.90;40.64
17254;BME280;32542;52.832;13.816;2023-05-13T03:07:55;102114.88;;;21.91;40.58
17254;BME280;32542;52.832;13.816;2023-05-13T03:11:01;102122.91;;;21.89;40.51
17254;BME280;32542;52.832;13.816;2023-05-13T03:14:06;102125.56;;;21.89;40.51
17254;BME280;32542;52.832;13.816;2023-05-13T03:17:09;102122.91;;;21.89;40.69
17254;BME280;32542;52.832;13.816;2023-05-13T03:20:12;102125.63;;;21.88;40.55
17254;BME280;32542;52.832;13.816;2023-05-13T03:23:15;102137.19;;;21.88;40.54
17254;BME280;32542;52.832;13.816;2023-05-13T03:26:22;102136.28;;;21.88;40.60
17254;BME280;32542;52.832;13.816;2023-05-13T03:29:25;102136.28;;;21.88;40.56
17254;BME280;32542;52.832;13.816;2023-05-13T03:32:28;102139.84;;;21.88;40.58
17254;BME280;32542;52.832;13.816;2023-05-13T03:35:33;102143.41;;;21.87;40.61
17254;BME280;32542;52.832;13.816;2023-05-13T03:38:37;102146.97;;;21.88;40.68
17254;BME280;32542;52.832;13.816;2023-05-13T03:41:41;102144.28;;;21.88;40.65
17254;BME280;32542;52.832;13.816;2023-05-13T03:44:44;102143.47;;;21.86;40.73
17254;BME280;32542;52.832;13.816;2023-05-13T03:47:47;102149.69;;;21.86;40.64
17254;BME280;32542;52.832;13.816;2023-05-13T03:50:52;102155.03;;;21.86;40.74
17254;BME280;32542;52.832;13.816;2023-05-13T03:53:56;102154.13;;;21.86;40.66
17254;BME280;32542;52.832;13.816;2023-05-13T03:57:00;102160.34;;;21.86;40.63
17254;BME280;32542;52.832;13.816;2023-05-13T04:00:04;102159.47;;;21.86;40.74
17254;BME280;32542;52.832;13.816;2023-05-13T04:03:15;102165.69;;;21.86;40.66
17254;BME280;32542;52.832;13.816;2023-05-13T04:06:18;102166.53;;;21.87;40.77
17254;BME280;32542;52.832;13.816;2023-05-13T04:09:22;102170.09;;;21.87;40.68
17254;BME280;32542;52.832;13.816;2023-05-13T04:12:26;102169.19;;;21.88;40.71
17254;BME280;32542;52.832;13.816;2023-05-13T04:15:29;102171.88;;;21.87;40.76
17254;BME280;32542;52.832;13.816;2023-05-13T04:18:32;102171.88;;;21.87;40.71
17254;BME280;32542;52.832;13.816;2023-05-13T04:21:35;102171.03;;;21.86;40.85
17254;BME280;32542;52.832;13.816;2023-05-13T04:24:38;102167.41;;;21.87;40.83
17254;BME280;32542;52.832;13.816;2023-05-13T04:27:43;102177.22;;;21.87;40.83
17254;BME280;32542;52.832;13.816;2023-05-13T04:30:56;102177.22;;;21.87;40.86
17254;BME280;32542;52.832;13.816;2023-05-13T04:33:59;102181.69;;;21.86;40.81
17254;BME280;32542;52.832;13.816;2023-05-13T04:37:01;102185.25;;;21.85;40.86
17254;BME280;32542;52.832;13.816;2023-05-13T04:40:05;102192.34;;;21.86;40.83
17254;BME280;32542;52.832;13.816;2023-05-13T04:43:10;102189.69;;;21.86;40.85
17254;BME280;32542;52.832;13.816;2023-05-13T04:46:21;102190.59;;;21.85;40.92
17254;BME280;32542;52.832;13.816;2023-05-13T04:49:25;102187.88;;;21.87;40.91
17254;BME280;32542;52.832;13.816;2023-05-13T04:52:28;102199.41;;;21.87;40.91
17254;BME280;32542;52.832;13.816;2023-05-13T04:55:31;102191.41;;;21.87;40.89
17254;BME280;32542;52.832;13.816;2023-05-13T04:58:37;102194.09;;;21.87;40.85
17254;BME280;32542;52.832;13.816;2023-05-13T05:01:41;102206.53;;;21.87;40.91
17254;BME280;32542;52.832;13.816;2023-05-13T05:04:44;102197.69;;;21.86;40.88
17254;BME280;32542;52.832;13.816;2023-05-13T05:07:50;102198.53;;;21.87;40.98
17254;BME280;32542;52.832;13.816;2023-05-13T05:10:54;102205.69;;;21.86;40.97
17254;BME280;32542;52.832;13.816;2023-05-13T05:13:59;102205.72;;;21.85;41.06
17254;BME280;32542;52.832;13.816;2023-05-13T05:17:02;102213.69;;;21.86;40.94
17254;BME280;32542;52.832;13.816;2023-05-13T05:20:06;102211.94;;;21.85;41.06
17254;BME280;32542;52.832;13.816;2023-05-13T05:23:09;102206.59;;;21.85;40.89
17254;BME280;32542;52.832;13.816;2023-05-13T05:26:12;102208.34;;;21.86;41.05
17254;BME280;32542;52.832;13.816;2023-05-13T05:29:18;102208.34;;;21.86;41.00
17254;BME280;32542;52.832;13.816;2023-05-13T05:32:21;102215.44;;;21.87;40.98
17254;BME280;32542;52.832;13.816;2023-05-13T05:35:24;102218.09;;;21.87;41.01
17254;BME280;32542;52.832;13.816;2023-05-13T05:38:28;102224.31;;;21.88;40.98
17254;BME280;32542;52.832;13.816;2023-05-13T05:41:33;102224.25;;;21.89;40.93
17254;BME280;32542;52.832;13.816;2023-05-13T05:44:37;102225.19;;;21.88;40.98
17254;BME280;32542;52.832;13.816;2023-05-13T05:47:41;102229.63;;;21.88;41.04
17254;BME280;32542;52.832;13.816;2023-05-13T05:50:45;102226.97;;;21.88;41.02
17254;BME280;32542;52.832;13.816;2023-05-13T05:53:56;102225.19;;;21.88;41.10
17254;BME280;32542;52.832;13.816;2023-05-13T05:56:59;102221.63;;;21.88;41.08
17254;BME280;32542;52.832;13.816;2023-05-13T06:00:04;102235.84;;;21.88;41.03
17254;BME280;32542;52.832;13.816;2023-05-13T06:03:15;102228.72;;;21.89;41.47
17254;BME280;32542;52.832;13.816;2023-05-13T06:06:18;102233.13;;;21.90;41.77
17254;BME280;32542;52.832;13.816;2023-05-13T06:09:21;102227.81;;;21.90;41.81
17254;BME280;32542;52.832;13.816;2023-05-13T06:12:24;102236.63;;;21.92;41.87
17254;BME280;32542;52.832;13.816;2023-05-13T06:15:28;102230.41;;;21.93;41.89
17254;BME280;32542;52.832;13.816;2023-05-13T06:18:31;102232.06;;;21.95;42.04
17254;BME280;32542;52.832;13.816;2023-05-13T06:21:34;102232.91;;;21.97;42.11
17254;BME280;32542;52.832;13.816;2023-05-13T06:24:37;102225.78;;;21.98;42.12
17254;BME280;32542;52.832;13.816;2023-05-13T06:27:43;102231.06;;;21.99;42.11
17254;BME280;32542;52.832;13.816;2023-05-13T06:30:47;102237.25;;;22.01;42.47
17254;BME280;32542;52.832;13.816;2023-05-13T06:33:50;102237.25;;;22.01;42.21
17254;BME280;32542;52.832;13.816;2023-05-13T06:36:53;102241.66;;;22.02;42.37
17254;BME280;32542;52.832;13.816;2023-05-13T06:39:56;102235.44;;;22.02;42.33
17254;BME280;32542;52.832;13.816;2023-05-13T06:43:00;102232.75;;;22.03;42.48
17254;BME280;32542;52.832;13.816;2023-05-13T06:46:06;102239.81;;;22.04;42.41
17254;BME280;32542;52.832;13.816;2023-05-13T06:49:10;102230.91;;;22.05;42.48
17254;BME280;32542;52.832;13.816;2023-05-13T06:52:13;102231.75;;;22.06;42.42
17254;BME280;32542;52.832;13.816;2023-05-13T06:55:16;102231.75;;;22.06;42.18
17254;BME280;32542;52.832;13.816;2023-05-13T06:58:19;102232.63;;;22.06;42.36
17254;BME280;32542;52.832;13.816;2023-05-13T07:01:23;102229.06;;;22.07;42.23
17254;BME280;32542;52.832;13.816;2023-05-13T07:04:28;102224.56;;;22.09;42.34
17254;BME280;32542;52.832;13.816;2023-05-13T07:07:31;102231.69;;;22.09;42.38
17254;BME280;32542;52.832;13.816;2023-05-13T07:10:34;102228.94;;;22.10;42.26
17254;BME280;32542;52.832;13.816;2023-05-13T07:13:37;102223.63;;;22.10;42.34
17254;BME280;32542;52.832;13.816;2023-05-13T07:16:42;102220.94;;;22.10;42.40
17254;BME280;32542;52.832;13.816;2023-05-13T07:19:44;102224.50;;;22.11;42.32
17254;BME280;32542;52.832;13.816;2023-05-13T07:22:48;102222.72;;;22.10;42.21
17254;BME280;32542;52.832;13.816;2023-05-13T07:25:51;102223.59;;;22.12;42.27
17254;BME280;32542;52.832;13.816;2023-05-13T07:28:55;102216.44;;;22.12;42.41
17254;BME280;32542;52.832;13.816;2023-05-13T07:32:03;102211.09;;;22.12;42.26
17254;BME280;32542;52.832;13.816;2023-05-13T07:35:07;102218.19;;;22.13;42.26
17254;BME280;32542;52.832;13.816;2023-05-13T07:38:10;102216.44;;;22.12;42.18
17254;BME280;32542;52.832;13.816;2023-05-13T07:41:14;102212.88;;;22.13;42.16
17254;BME280;32542;52.832;13.816;2023-05-13T07:44:16;102211.97;;;22.13;42.18
17254;BME280;32542;52.832;13.816;2023-05-13T07:47:21;102211.03;;;22.15;42.28
17254;BME280;32542;52.832;13.816;2023-05-13T07:50:24;102198.59;;;22.14;42.16
17254;BME280;32542;52.832;13.816;2023-05-13T07:53:27;102199.41;;;22.16;42.29
17254;BME280;32542;52.832;13.816;2023-05-13T07:56:29;102203.84;;;22.17;42.28
17254;BME280;32542;52.832;13.816;2023-05-13T07:59:32;102203.84;;;22.17;42.27
17254;BME280;32542;52.832;13.816;2023-05-13T08:02:37;102195.84;;;22.17;42.25
17254;BME280;32542;52.832;13.816;2023-05-13T08:05:40;102195.84;;;22.17;42.20
17254;BME280;32542;52.832;13.816;2023-05-13T08:08:43;102191.38;;;22.18;42.16
17254;BME280;32542;52.832;13.816;2023-05-13T08:11:46;102198.50;;;22.17;42.08
17254;BME280;32542;52.832;13.816;2023-05-13T08:14:48;102195.84;;;22.17;42.24
17254;BME280;32542;52.832;13.816;2023-05-13T08:17:53;102198.50;;;22.17;42.30
17254;BME280;32542;52.832;13.816;2023-05-13T08:20:55;102188.78;;;22.15;41.50
17254;BME280;32542;52.832;13.816;2023-05-13T08:23:58;102182.69;;;22.11;40.25
17254;BME280;32542;52.832;13.816;2023-05-13T08:27:02;102184.66;;;22.05;38.12
17254;BME280;32542;52.832;13.816;2023-05-13T08:30:07;102190.13;;;22.00;37.27
17254;BME280;32542;52.832;13.816;2023-05-13T08:33:11;102178.72;;;21.95;35.19
17254;BME280;32542;52.832;13.816;2023-05-13T08:36:14;102206.41;;;21.91;34.28
17254;BME280;32542;52.832;13.816;2023-05-13T08:39:17;102197.69;;;21.86;34.50
17254;BME280;32542;52.832;13.816;2023-05-13T08:42:21;102188.88;;;21.84;34.67
17254;BME280;32542;52.832;13.816;2023-05-13T08:45:27;102206.72;;;21.82;33.52
17254;BME280;32542;52.832;13.816;2023-05-13T08:48:32;102196.97;;;21.80;33.03
17254;BME280;32542;52.832;13.816;2023-05-13T08:51:36;102204.97;;;21.78;32.84
17254;BME280;32542;52.832;13.816;2023-05-13T08:54:39;102180.25;;;21.73;32.46
17254;BME280;32542;52.832;13.816;2023-05-13T08:57:44;102179.38;;;21.72;33.26
17254;BME280;32542;52.832;13.816;2023-05-13T09:00:47;102176.66;;;21.74;33.52
17254;BME280;32542;52.832;13.816;2023-05-13T09:03:57;102177.50;;;21.76;33.74
17254;BME280;32542;52.832;13.816;2023-05-13T09:07:00;102180.97;;;21.78;34.20
17254;BME280;32542;52.832;13.816;2023-05-13T09:10:03;102173.81;;;21.80;34.44
17254;BME280;32542;52.832;13.816;2023-05-13T09:13:07;102178.25;;;21.81;34.46
17254;BME280;32542;52.832;13.816;2023-05-13T09:16:09;102182.69;;;21.81;34.04
17254;BME280;32542;52.832;13.816;2023-05-13T09:19:14;102169.41;;;21.79;32.80
17254;BME280;32542;52.832;13.816;2023-05-13T09:22:17;102174.75;;;21.79;33.03
17254;BME280;32542;52.832;13.816;2023-05-13T09:25:21;102164.97;;;21.78;33.14
17254;BME280;32542;52.832;13.816;2023-05-13T09:28:25;102174.75;;;21.79;33.00
17254;BME280;32542;52.832;13.816;2023-05-13T09:31:31;102159.66;;;21.78;30.41
17254;BME280;32542;52.832;13.816;2023-05-13T09:34:36;102153.50;;;21.76;31.57
17254;BME280;32542;52.832;13.816;2023-05-13T09:37:39;102164.16;;;21.76;31.66
17254;BME280;32542;52.832;13.816;2023-05-13T09:40:48;102162.44;;;21.75;31.25
17254;BME280;32542;52.832;13.816;2023-05-13T09:43:53;102187.31;;;21.74;31.01
17254;BME280;32542;52.832;13.816;2023-05-13T09:46:56;102160.66;;;21.74;31.45
17254;BME280;32542;52.832;13.816;2023-05-13T09:50:01;102159.81;;;21.73;30.35
17254;BME280;32542;52.832;13.816;2023-05-13T09:53:09;102146.44;;;21.75;30.66
17254;BME280;32542;52.832;13.816;2023-05-13T09:56:12;102146.44;;;21.75;31.14
17254;BME280;32542;52.832;13.816;2023-05-13T09:59:15;102135.75;;;21.75;31.45
17254;BME280;32542;52.832;13.816;2023-05-13T10:02:18;102140.16;;;21.76;31.61
17254;BME280;32542;52.832;13.816;2023-05-13T10:05:23;102139.25;;;21.77;31.76
17254;BME280;32542;52.832;13.816;2023-05-13T10:08:27;102131.19;;;21.78;32.24
17254;BME280;32542;52.832;13.816;2023-05-13T10:11:31;102138.28;;;21.80;32.24
17254;BME280;32542;52.832;13.816;2023-05-13T10:14:35;102130.31;;;21.78;32.37
17254;BME280;32542;52.832;13.816;2023-05-13T10:17:39;102134.75;;;21.79;32.26
17254;BME280;32542;52.832;13.816;2023-05-13T10:20:45;102134.75;;;21.79;32.18
17254;BME280;32542;52.832;13.816;2023-05-13T10:23:48;102133.81;;;21.80;32.22
17254;BME280;32542;52.832;13.816;2023-05-13T10:26:52;102137.41;;;21.79;32.40
17254;BME280;32542;52.832;13.816;2023-05-13T10:29:57;102123.13;;;21.80;32.24
17254;BME280;32542;52.832;13.816;2023-05-13T10:33:03;102127.56;;;21.81;32.54
17254;BME280;32542;52.832;13.816;2023-05-13T10:36:23;102131.09;;;21.83;32.63
17254;BME280;32542;52.832;13.816;2023-05-13T10:39:50;102122.19;;;21.84;32.84
17254;BME280;32542;52.832;13.816;2023-05-13T10:43:09;102120.38;;;21.85;32.74
17254;BME280;32542;52.832;13.816;2023-05-13T10:46:13;102123.00;;;21.86;32.69
17254;BME280;32542;52.832;13.816;2023-05-13T10:49:16;102110.53;;;21.87;32.22
17254;BME280;32542;52.832;13.816;2023-05-13T10:52:20;102101.63;;;21.88;32.62
17254;BME280;32542;52.832;13.816;2023-05-13T10:55:25;102123.00;;;21.86;32.82
17254;BME280;32542;52.832;13.816;2023-05-13T10:58:28;102122.06;;;21.87;32.86
17254;BME280;32542;52.832;13.816;2023-05-13T11:01:33;102104.34;;;21.86;32.67
17254;BME280;32542;52.832;13.816;2023-05-13T11:04:56;102097.19;;;21.87;32.53
17254;BME280;32542;52.832;13.816;2023-05-13T11:08:00;102112.34;;;21.86;32.51
17254;BME280;32542;52.832;13.816;2023-05-13T11:11:16;102114.13;;;21.86;32.54
17254;BME280;32542;52.832;13.816;2023-05-13T11:14:20;102116.88;;;21.83;31.45
17254;BME280;32542;52.832;13.816;2023-05-13T11:17:23;102111.56;;;21.81;30.13
17254;BME280;32542;52.832;13.816;2023-05-13T11:20:27;102116.06;;;21.79;29.57
17254;BME280;32542;52.832;13.816;2023-05-13T11:23:32;102110.81;;;21.77;30.20
17254;BME280;32542;52.832;13.816;2023-05-13T11:26:45;102130.31;;;21.78;30.66
17254;BME280;32542;52.832;13.816;2023-05-13T11:29:48;102114.31;;;21.78;30.74
17254;BME280;32542;52.832;13.816;2023-05-13T11:32:53;102117.91;;;21.77;30.64
17254;BME280;32542;52.832;13.816;2023-05-13T11:35:57;102110.81;;;21.76;30.77
17254;BME280;32542;52.832;13.816;2023-05-13T11:39:07;102112.66;;;21.75;31.18
17254;BME280;32542;52.832;13.816;2023-05-13T11:42:11;102108.16;;;21.76;31.32
17254;BME280;32542;52.832;13.816;2023-05-13T11:45:15;102101.94;;;21.77;32.28
17254;BME280;32542;52.832;13.816;2023-05-13T11:48:19;102100.09;;;21.79;32.59
17254;BME280;32542;52.832;13.816;2023-05-13T11:51:22;102103.56;;;21.81;32.36
17254;BME280;32542;52.832;13.816;2023-05-13T11:54:27;102088.47;;;21.80;31.99
17254;BME280;32542;52.832;13.816;2023-05-13T11:57:30;102095.56;;;21.81;32.13
17254;BME280;32542;52.832;13.816;2023-05-13T12:00:34;102092.91;;;21.81;32.13
17254;BME280;32542;52.832;13.816;2023-05-13T12:03:36;102080.47;;;21.80;31.39
17254;BME280;32542;52.832;13.816;2023-05-13T12:06:43;102087.56;;;21.81;31.78
17254;BME280;32542;52.832;13.816;2023-05-13T12:09:48;102089.38;;;21.82;32.37
17254;BME280;32542;52.832;13.816;2023-05-13T12:12:51;102096.44;;;21.82;32.44
17254;BME280;32542;52.832;13.816;2023-05-13T12:15:55;102086.63;;;21.84;32.92
17254;BME280;32542;52.832;13.816;2023-05-13T12:18:58;102080.44;;;21.83;33.32
17254;BME280;32542;52.832;13.816;2023-05-13T12:22:01;102086.59;;;21.85;33.72
17254;BME280;32542;52.832;13.816;2023-05-13T12:25:39;102082.06;;;21.87;33.97
17254;BME280;32542;52.832;13.816;2023-05-13T12:28:43;102096.28;;;21.88;34.28
17254;BME280;32542;52.832;13.816;2023-05-13T12:32:01;102082.00;;;21.89;34.34
17254;BME280;32542;52.832;13.816;2023-05-13T12:35:11;102096.22;;;21.89;34.55
17254;BME280;32542;52.832;13.816;2023-05-13T12:38:16;102092.66;;;21.90;34.67
17254;BME280;32542;52.832;13.816;2023-05-13T12:41:21;102090.81;;;21.92;34.92
17254;BME280;32542;52.832;13.816;2023-05-13T12:44:26;102097.88;;;21.93;35.06
17254;BME280;32542;52.832;13.816;2023-05-13T12:50:48;102079.13;;;21.96;35.38
17254;BME280;32542;52.832;13.816;2023-05-13T12:53:52;102080.00;;;21.97;35.60
17254;BME280;32542;52.832;13.816;2023-05-13T12:56:57;102086.16;;;21.99;35.78
17254;BME280;32542;52.832;13.816;2023-05-13T13:00:00;102087.00;;;21.99;35.91
17254;BME280;32542;52.832;13.816;2023-05-13T13:03:03;102079.88;;;22.01;36.03
17254;BME280;32542;52.832;13.816;2023-05-13T13:06:06;102086.94;;;22.02;36.23
17254;BME280;32542;52.832;13.816;2023-05-13T13:09:10;102088.69;;;22.03;36.30
17254;BME280;32542;52.832;13.816;2023-05-13T13:12:15;102091.28;;;22.05;36.45
17254;BME280;32542;52.832;13.816;2023-05-13T13:15:18;102081.50;;;22.05;36.40
17254;BME280;32542;52.832;13.816;2023-05-13T13:18:21;102060.16;;;22.05;36.53
17254;BME280;32542;52.832;13.816;2023-05-13T13:21:25;102064.56;;;22.06;36.63
17254;BME280;32542;52.832;13.816;2023-05-13T13:24:28;102060.94;;;22.09;36.66
17254;BME280;32542;52.832;13.816;2023-05-13T13:27:33;102067.16;;;22.09;36.80
17254;BME280;32542;52.832;13.816;2023-05-13T13:30:35;102070.63;;;22.11;36.69
17254;BME280;32542;52.832;13.816;2023-05-13T13:33:38;102064.34;;;22.12;36.75
17254;BME280;32542;52.832;13.816;2023-05-13T13:36:41;102068.78;;;22.13;36.82
17254;BME280;32542;52.832;13.816;2023-05-13T13:39:44;102066.94;;;22.15;37.03
17254;BME280;32542;52.832;13.816;2023-05-13T13:42:48;102080.28;;;22.15;36.99
17254;BME280;32542;52.832;13.816;2023-05-13T13:45:51;102067.81;;;22.16;37.07
17254;BME280;32542;52.832;13.816;2023-05-13T13:48:53;102077.59;;;22.15;37.09
17254;BME280;32542;52.832;13.816;2023-05-13T13:51:56;102076.66;;;22.16;37.12
17254;BME280;32542;52.832;13.816;2023-05-13T13:54:59;102079.34;;;22.16;37.02
17254;BME280;32542;52.832;13.816;2023-05-13T13:58:03;102067.81;;;22.16;37.07
17254;BME280;32542;52.832;13.816;2023-05-13T14:01:06;102066.94;;;22.15;37.13
17254;BME280;32542;52.832;13.816;2023-05-13T14:04:10;102062.50;;;22.14;37.13
17254;BME280;32542;52.832;13.816;2023-05-13T14:07:13;102057.16;;;22.16;37.15
17254;BME280;32542;52.832;13.816;2023-05-13T14:10:16;102054.50;;;22.14;37.15
17254;BME280;32542;52.832;13.816;2023-05-13T14:13:20;102045.59;;;22.15;37.14
17254;BME280;32542;52.832;13.816;2023-05-13T14:16:23;102051.84;;;22.14;37.10
17254;BME280;32542;52.832;13.816;2023-05-13T14:19:26;102056.25;;;22.15;37.18
17254;BME280;32542;52.832;13.816;2023-05-13T14:22:29;102040.25;;;22.15;37.14
17254;BME280;32542;52.832;13.816;2023-05-13T14:25:32;102046.50;;;22.14;37.17
17254;BME280;32542;52.832;13.816;2023-05-13T14:28:36;102048.25;;;22.15;37.31
17254;BME280;32542;52.832;13.816;2023-05-13T14:31:38;102058.94;;;22.15;37.28
17254;BME280;32542;52.832;13.816;2023-05-13T14:34:41;102041.16;;;22.14;37.30
17254;BME280;32542;52.832;13.816;2023-05-13T14:37:44;102050.03;;;22.15;37.39
17254;BME280;32542;52.832;13.816;2023-05-13T14:40:47;102034.03;;;22.15;37.46
17254;BME280;32542;52.832;13.816;2023-05-13T14:43:51;102042.97;;;22.14;37.53
17254;BME280;32542;52.832;13.816;2023-05-13T14:46:54;102051.84;;;22.14;37.50
17254;BME280;32542;52.832;13.816;2023-05-13T14:49:57;102042.09;;;22.13;37.67
17254;BME280;32542;52.832;13.816;2023-05-13T14:53:00;102047.44;;;22.13;36.95
17254;BME280;32542;52.832;13.816;2023-05-13T14:56:03;102036.81;;;22.12;37.44
17254;BME280;32542;52.832;13.816;2023-05-13T14:59:08;102027.00;;;22.12;37.46
17254;BME280;32542;52.832;13.816;2023-05-13T15:02:10;102035.88;;;22.13;37.26
17254;BME280;32542;52.832;13.816;2023-05-13T15:05:14;102035.88;;;22.13;37.35
17254;BME280;32542;52.832;13.816;2023-05-13T15:08:17;102040.34;;;22.12;37.34
17254;BME280;32542;52.832;13.816;2023-05-13T15:11:20;102047.44;;;22.13;37.42
17254;BME280;32542;52.832;13.816;2023-05-13T15:14:25;102042.09;;;22.13;37.46
17254;BME280;32542;52.832;13.816;2023-05-13T15:17:28;102041.16;;;22.14;37.85
17254;BME280;32542;52.832;13.816;2023-05-13T15:20:31;102041.13;;;22.16;38.00
17254;BME280;32542;52.832;13.816;2023-05-13T15:23:34;102037.53;;;22.17;38.05
17254;BME280;32542;52.832;13.816;2023-05-13T15:26:37;102033.97;;;22.16;38.39
17254;BME280;32542;52.832;13.816;2023-05-13T15:29:41;102032.13;;;22.18;38.68
17254;BME280;32542;52.832;13.816;2023-05-13T15:32:44;102037.47;;;22.18;38.84
17254;BME280;32542;52.832;13.816;2023-05-13T15:35:47;102026.78;;;22.18;38.67
17254;BME280;32542;52.832;13.816;2023-05-13T15:38:49;102029.47;;;22.18;38.56
17254;BME280;32542;52.832;13.816;2023-05-13T15:41:52;102013.44;;;22.18;38.43
17254;BME280;32542;52.832;13.816;2023-05-13T15:44:56;102031.22;;;22.19;38.10
17254;BME280;32542;52.832;13.816;2023-05-13T15:47:59;102028.56;;;22.19;37.92
17254;BME280;32542;52.832;13.816;2023-05-13T15:51:02;102031.22;;;22.19;37.92
17254;BME280;32542;52.832;13.816;2023-05-13T15:54:07;102034.78;;;22.18;37.80